createdAt,value
2017-06-03T00:01:56.109Z,8.73
2017-06-03T00:04:23.649Z,9.33
2017-06-03T00:06:51.213Z,10.00
2017-06-03T00:09:18.792Z,13.83
2017-06-03T00:11:46.333Z,11.80
2017-06-03T00:14:13.875Z,12.77
2017-06-03T00:16:41.450Z,11.40
2017-06-03T00:19:08.986Z,11.70
2017-06-03T00:21:36.536Z,12.20
2017-06-03T00:24:04.120Z,11.50
2017-06-03T00:26:31.690Z,10.10
2017-06-03T00:28:59.229Z,10.47
2017-06-03T00:31:26.826Z,11.37
2017-06-03T00:33:54.364Z,9.20
2017-06-03T00:36:21.901Z,9.03
2017-06-03T00:38:49.464Z,9.40
2017-06-03T00:41:16.999Z,9.60
2017-06-03T00:43:44.529Z,9.53
2017-06-03T00:46:12.098Z,10.10
2017-06-03T00:48:39.645Z,9.77
2017-06-03T00:51:07.193Z,8.20
2017-06-03T00:53:34.786Z,8.53
2017-06-03T00:56:02.324Z,9.33
2017-06-03T00:58:29.865Z,9.67
2017-06-03T01:00:57.944Z,10.40
2017-06-03T01:03:25.479Z,8.83
2017-06-03T01:05:53.017Z,8.90
2017-06-03T01:08:20.601Z,8.90
2017-06-03T01:10:48.150Z,8.53
2017-06-03T01:13:15.685Z,8.37
2017-06-03T01:15:43.241Z,7.77
2017-06-03T01:18:10.774Z,8.80
2017-06-03T01:20:38.313Z,8.20
2017-06-03T01:23:05.878Z,7.30
2017-06-03T01:25:33.415Z,9.07
2017-06-03T01:28:00.942Z,8.47
2017-06-03T01:30:28.521Z,9.03
2017-06-03T01:32:56.078Z,8.33
2017-06-03T01:35:23.655Z,8.20
2017-06-03T01:37:51.229Z,8.80
2017-06-03T01:40:18.760Z,8.37
2017-06-03T01:42:46.288Z,9.13
2017-06-03T01:45:13.862Z,8.90
2017-06-03T01:47:41.426Z,9.37
2017-06-03T01:50:08.972Z,9.93
2017-06-03T01:52:36.590Z,9.30
2017-06-03T01:55:04.127Z,9.73
2017-06-03T01:57:31.661Z,8.80
2017-06-03T01:59:59.242Z,9.20
2017-06-03T02:02:26.821Z,10.50
2017-06-03T02:04:54.361Z,10.50
2017-06-03T02:07:21.892Z,9.47
2017-06-03T02:09:49.461Z,11.70
2017-06-03T02:12:16.996Z,10.50
2017-06-03T02:14:44.537Z,14.20
2017-06-03T02:17:12.104Z,11.30
2017-06-03T02:19:39.629Z,13.10
2017-06-03T02:22:07.178Z,10.20
2017-06-03T02:24:34.755Z,13.03
2017-06-03T02:27:02.302Z,10.03
2017-06-03T02:29:29.845Z,10.60
2017-06-03T02:31:57.418Z,11.30
2017-06-03T02:34:24.958Z,11.03
2017-06-03T02:36:52.502Z,12.43
2017-06-03T02:39:20.073Z,11.80
2017-06-03T02:41:47.610Z,11.63
2017-06-03T02:44:15.159Z,11.20
2017-06-03T02:46:42.754Z,13.57
2017-06-03T02:49:10.294Z,11.40
2017-06-03T02:51:37.837Z,12.63
2017-06-03T02:54:05.407Z,11.20
2017-06-03T02:56:32.941Z,11.77
2017-06-03T02:59:00.479Z,11.93
2017-06-03T03:01:28.066Z,11.90
2017-06-03T03:03:55.651Z,11.57
2017-06-03T03:06:23.195Z,15.30
2017-06-03T03:08:50.774Z,11.57
2017-06-03T03:11:18.333Z,12.77
2017-06-03T03:13:45.880Z,12.53
2017-06-03T03:16:13.460Z,12.27
2017-06-03T03:18:41.003Z,12.40
2017-06-03T03:21:08.550Z,12.43
2017-06-03T03:23:36.151Z,11.43
2017-06-03T03:26:03.693Z,11.73
2017-06-03T03:28:31.242Z,11.83
2017-06-03T03:30:58.816Z,10.37
2017-06-03T03:33:26.399Z,11.07
2017-06-03T03:35:53.941Z,11.37
2017-06-03T03:38:21.522Z,12.83
2017-06-03T03:40:49.071Z,13.50
2017-06-03T03:43:16.615Z,10.80
2017-06-03T03:45:44.219Z,11.43
2017-06-03T03:48:11.778Z,11.93
2017-06-03T03:50:39.308Z,9.83
2017-06-03T03:53:06.894Z,12.37
2017-06-03T03:55:34.435Z,12.30
2017-06-03T03:58:01.998Z,10.67
2017-06-03T04:00:29.590Z,11.80
2017-06-03T04:02:57.134Z,13.33
2017-06-03T04:05:24.673Z,11.23
2017-06-03T04:07:52.258Z,12.37
2017-06-03T04:10:19.794Z,11.87
2017-06-03T04:12:47.350Z,11.37
2017-06-03T04:15:15.018Z,13.00
2017-06-03T04:17:42.557Z,11.80
2017-06-03T04:20:10.095Z,11.07
2017-06-03T04:22:37.666Z,13.73
2017-06-03T04:25:05.223Z,8.83
2017-06-03T04:27:32.758Z,11.20
2017-06-03T04:30:00.701Z,11.90
2017-06-03T04:32:28.318Z,9.50
2017-06-03T04:34:55.849Z,9.00
2017-06-03T04:37:23.390Z,9.63
2017-06-03T04:39:50.969Z,10.93
2017-06-03T04:42:18.601Z,10.23
2017-06-03T04:44:46.135Z,10.63
2017-06-03T04:47:49.361Z,8.63
2017-06-03T04:50:18.225Z,10.10
2017-06-03T04:52:45.801Z,10.07
2017-06-03T04:55:13.418Z,10.10
2017-06-03T04:57:40.953Z,10.17
2017-06-03T05:00:08.630Z,10.67
2017-06-03T05:02:36.209Z,10.07
2017-06-03T05:05:03.765Z,9.37
2017-06-03T05:07:31.348Z,10.40
2017-06-03T05:09:58.879Z,8.20
2017-06-03T05:12:26.417Z,8.37
2017-06-03T05:14:53.990Z,10.13
2017-06-03T05:17:21.525Z,12.83
2017-06-03T05:19:49.058Z,7.77
2017-06-03T05:22:16.637Z,9.30
2017-06-03T05:24:44.174Z,9.47
2017-06-03T05:27:11.707Z,8.67
2017-06-03T05:29:39.301Z,12.17
2017-06-03T05:32:06.974Z,10.83
2017-06-03T05:34:34.981Z,8.50
2017-06-03T05:37:02.529Z,9.90
2017-06-03T05:39:30.112Z,8.73
2017-06-03T05:41:57.640Z,8.73
2017-06-03T05:44:25.584Z,10.10
2017-06-03T05:46:53.171Z,10.83
2017-06-03T05:49:20.706Z,13.80
2017-06-03T05:51:48.243Z,14.30
2017-06-03T05:54:15.816Z,18.60
2017-06-03T05:56:43.367Z,8.93
2017-06-03T05:59:10.915Z,24.20
2017-06-03T06:01:38.480Z,9.43
2017-06-03T06:04:06.061Z,16.07
2017-06-03T06:06:33.602Z,8.67
2017-06-03T06:09:01.194Z,9.10
2017-06-03T06:11:29.089Z,11.13
2017-06-03T06:13:56.651Z,9.33
2017-06-03T06:16:24.295Z,14.17
2017-06-03T06:18:51.834Z,9.93
2017-06-03T06:21:19.397Z,8.40
2017-06-03T06:23:46.969Z,9.57
2017-06-03T06:26:14.504Z,8.93
2017-06-03T06:28:42.061Z,13.83
2017-06-03T06:31:09.649Z,18.70
2017-06-03T06:33:37.197Z,14.57
2017-06-03T06:36:04.742Z,12.50
2017-06-03T06:38:32.324Z,14.30
2017-06-03T06:40:59.865Z,12.90
2017-06-03T06:43:27.405Z,8.90
2017-06-03T06:45:54.991Z,11.23
2017-06-03T06:48:22.572Z,12.13
2017-06-03T06:50:50.218Z,11.47
2017-06-03T06:53:17.827Z,10.60
2017-06-03T06:55:46.863Z,11.53
2017-06-03T06:58:14.526Z,12.77
2017-06-03T07:00:42.171Z,11.17
2017-06-03T07:03:11.194Z,11.30
2017-06-03T07:05:38.756Z,19.53
2017-06-03T07:08:06.607Z,17.80
2017-06-03T07:10:34.768Z,12.30
2017-06-03T07:13:03.148Z,11.17
2017-06-03T07:15:31.162Z,13.47
2017-06-03T07:17:59.001Z,12.30
2017-06-03T07:20:26.646Z,10.90
2017-06-03T07:22:56.861Z,9.83
2017-06-03T07:25:26.248Z,10.63
2017-06-03T07:27:53.982Z,14.47
2017-06-03T07:30:23.290Z,11.33
2017-06-03T07:32:52.297Z,14.90
2017-06-03T07:35:22.074Z,14.77
2017-06-03T07:37:50.653Z,13.70
2017-06-03T07:40:18.547Z,10.07
2017-06-03T07:42:46.143Z,10.97
2017-06-03T07:45:13.983Z,10.57
2017-06-03T07:47:42.773Z,11.63
2017-06-03T07:50:11.143Z,11.37
2017-06-03T07:52:44.711Z,9.77
2017-06-03T07:55:13.032Z,16.90
2017-06-03T07:57:42.283Z,7.90
2017-06-03T08:00:13.376Z,7.70
2017-06-03T08:02:43.524Z,9.73
2017-06-03T08:05:11.993Z,10.37
2017-06-03T08:07:40.362Z,9.43
2017-06-03T08:10:07.909Z,9.13
2017-06-03T08:12:35.471Z,11.27
2017-06-03T08:15:04.046Z,8.60
2017-06-03T08:17:31.593Z,9.50
2017-06-03T08:19:59.162Z,8.40
2017-06-03T08:22:26.750Z,8.50
2017-06-03T08:24:54.285Z,7.80
2017-06-03T08:27:22.010Z,6.50
2017-06-03T08:29:50.004Z,13.93
2017-06-03T08:32:17.759Z,7.60
2017-06-03T08:34:45.468Z,7.63
2017-06-03T08:37:13.304Z,7.07
2017-06-03T08:39:41.315Z,6.83
2017-06-03T08:42:08.951Z,6.57
2017-06-03T08:44:36.569Z,6.20
2017-06-03T08:47:04.179Z,5.97
2017-06-03T08:49:31.755Z,4.93
2017-06-03T08:51:59.744Z,5.00
2017-06-03T08:54:27.462Z,6.13
2017-06-03T08:56:55.117Z,5.10
2017-06-03T08:59:22.692Z,5.30
2017-06-03T09:01:50.558Z,5.70
2017-06-03T09:04:18.234Z,10.93
2017-06-03T09:06:45.810Z,6.40
2017-06-03T09:09:13.394Z,5.10
2017-06-03T09:11:45.090Z,6.97
2017-06-03T09:14:13.623Z,7.00
2017-06-03T09:19:18.238Z,9.30
2017-06-03T09:21:45.798Z,6.47
2017-06-03T09:24:13.385Z,6.37
2017-06-03T09:26:40.989Z,6.17
2017-06-03T09:29:08.557Z,7.13
2017-06-03T09:31:37.256Z,6.30
2017-06-03T09:34:04.792Z,4.90
2017-06-03T09:36:32.347Z,5.40
2017-06-03T09:38:59.994Z,5.27
2017-06-03T09:41:27.535Z,7.33
2017-06-03T09:43:55.080Z,7.40
2017-06-03T09:46:22.673Z,4.90
2017-06-03T09:48:53.027Z,6.00
2017-06-03T09:51:20.803Z,5.27
2017-06-03T09:53:48.398Z,4.83
2017-06-03T09:56:15.959Z,4.70
2017-06-03T09:58:43.518Z,8.10
2017-06-03T10:01:13.807Z,5.70
2017-06-03T10:03:41.455Z,8.77
2017-06-03T10:06:08.997Z,4.80
2017-06-03T10:08:36.558Z,5.30
2017-06-03T10:11:04.104Z,6.13
2017-06-03T10:13:31.639Z,5.07
2017-06-03T10:15:59.238Z,5.93
2017-06-03T10:18:26.775Z,5.20
2017-06-03T10:21:26.049Z,4.90
2017-06-03T10:23:53.585Z,5.27
2017-06-03T10:26:21.118Z,8.10
2017-06-03T10:28:48.690Z,5.37
2017-06-03T10:31:16.290Z,5.10
2017-06-03T10:33:43.826Z,4.30
2017-06-03T10:36:11.370Z,4.50
2017-06-03T10:38:38.973Z,4.40
2017-06-03T10:41:06.540Z,5.60
2017-06-03T10:43:34.103Z,4.90
2017-06-03T10:46:01.680Z,4.20
2017-06-03T10:48:29.208Z,4.20
2017-06-03T10:50:56.831Z,4.33
2017-06-03T10:53:24.412Z,5.23
2017-06-03T10:55:51.952Z,6.37
2017-06-03T10:58:19.529Z,4.77
2017-06-03T11:00:47.170Z,7.13
2017-06-03T11:03:14.706Z,5.30
2017-06-03T11:05:42.290Z,5.10
2017-06-03T11:08:09.860Z,6.00
2017-06-03T11:10:37.597Z,4.37
2017-06-03T11:13:05.133Z,4.50
2017-06-03T11:15:32.705Z,5.83
2017-06-03T11:18:00.257Z,5.03
2017-06-03T11:20:27.860Z,5.60
2017-06-03T11:22:55.434Z,5.63
2017-06-03T11:54:28.887Z,5.47
2017-06-03T11:56:56.461Z,6.83
2017-06-03T11:59:23.988Z,5.97
2017-06-03T12:01:51.557Z,5.40
2017-06-03T12:04:19.111Z,6.40
2017-06-03T12:06:46.642Z,5.10
2017-06-03T12:09:14.217Z,4.80
2017-06-03T12:11:41.760Z,5.50
2017-06-03T12:14:09.298Z,5.60
2017-06-03T12:16:37.017Z,6.50
2017-06-03T12:19:04.551Z,5.23
2017-06-03T12:21:32.483Z,5.10
2017-06-03T12:24:00.058Z,6.23
2017-06-03T12:26:27.953Z,5.10
2017-06-03T12:28:55.500Z,7.13
2017-06-03T12:31:23.072Z,5.77
2017-06-03T12:33:50.610Z,5.20
2017-06-03T12:36:18.139Z,5.13
2017-06-03T12:38:45.717Z,4.90
2017-06-03T12:41:13.256Z,6.57
2017-06-03T12:43:40.803Z,8.33
2017-06-03T12:46:08.377Z,5.87
2017-06-03T12:48:35.912Z,4.97
2017-06-03T12:51:03.462Z,6.70
2017-06-03T12:53:31.911Z,6.07
2017-06-03T12:55:59.451Z,6.40
2017-06-03T12:58:26.984Z,6.53
2017-06-03T13:00:54.573Z,11.17
2017-06-03T13:03:22.137Z,11.33
2017-06-03T13:05:49.675Z,8.20
2017-06-03T13:08:17.282Z,19.40
2017-06-03T13:10:44.810Z,7.07
2017-06-03T13:13:12.351Z,7.77
2017-06-03T13:15:39.953Z,5.93
2017-06-03T13:18:07.473Z,4.77
2017-06-03T13:20:35.019Z,6.83
2017-06-03T13:23:02.602Z,4.60
2017-06-03T13:25:30.196Z,6.87
2017-06-03T13:27:57.743Z,6.63
2017-06-03T13:30:25.519Z,5.90
2017-06-03T13:32:54.442Z,5.73
2017-06-03T13:35:24.181Z,6.80
2017-06-03T13:37:53.638Z,5.90
2017-06-03T13:40:22.845Z,6.47
2017-06-03T13:42:51.222Z,6.70
2017-06-03T13:45:20.633Z,6.27
2017-06-03T13:47:49.947Z,5.17
2017-06-03T13:50:19.511Z,6.73
2017-06-03T13:52:49.023Z,7.43
2017-06-03T13:55:18.479Z,11.43
2017-06-03T13:57:46.057Z,7.60
2017-06-03T14:00:13.855Z,7.97
2017-06-03T14:02:43.161Z,9.30
2017-06-03T14:05:16.173Z,13.63
2017-06-03T14:07:43.797Z,7.63
2017-06-03T14:10:11.350Z,5.10
2017-06-03T14:12:39.485Z,4.93
2017-06-03T14:15:08.070Z,4.87
2017-06-03T14:17:36.462Z,5.10
2017-06-03T14:20:04.089Z,4.50
2017-06-03T14:22:31.618Z,5.00
2017-06-03T14:24:59.169Z,5.07
2017-06-03T14:27:26.759Z,5.27
2017-06-03T14:29:54.305Z,5.60
2017-06-03T14:32:21.885Z,6.30
2017-06-03T14:34:49.490Z,4.73
2017-06-03T14:37:17.772Z,4.70
2017-06-03T14:39:45.341Z,9.43
2017-06-03T14:42:12.871Z,4.90
2017-06-03T14:44:40.410Z,5.23
2017-06-03T14:47:08.014Z,7.10
2017-06-03T14:49:35.546Z,4.53
2017-06-03T14:52:03.102Z,6.80
2017-06-03T14:54:30.707Z,4.80
2017-06-03T14:56:58.453Z,5.53
2017-06-03T14:59:26.616Z,6.23
2017-06-03T15:01:55.096Z,7.43
2017-06-03T15:04:22.962Z,6.30
2017-06-03T15:06:50.543Z,5.83
2017-06-03T15:09:18.133Z,5.50
2017-06-03T15:11:46.336Z,7.60
2017-06-03T15:14:14.115Z,7.13
2017-06-03T15:16:41.928Z,7.37
2017-06-03T15:19:09.475Z,5.83
2017-06-03T15:21:37.009Z,5.87
2017-06-03T15:24:04.647Z,6.30
2017-06-03T15:26:34.691Z,5.90
2017-06-03T15:29:03.132Z,5.93
2017-06-03T15:31:31.166Z,5.60
2017-06-03T15:33:59.546Z,6.23
2017-06-03T15:36:27.101Z,5.10
2017-06-03T15:38:54.699Z,5.40
2017-06-03T15:41:22.279Z,6.40
2017-06-03T15:43:50.237Z,6.03
2017-06-03T15:46:18.439Z,5.70
2017-06-03T15:48:46.366Z,5.53
2017-06-03T15:51:14.533Z,6.60
2017-06-03T15:53:42.248Z,8.90
2017-06-03T15:56:10.214Z,7.50
2017-06-03T15:58:37.858Z,9.40
2017-06-03T16:01:05.646Z,13.53
2017-06-03T16:03:33.190Z,6.53
2017-06-03T16:06:00.810Z,6.63
2017-06-03T16:08:28.578Z,7.97
2017-06-03T16:10:56.127Z,4.90
2017-06-03T16:13:23.773Z,5.13
2017-06-03T16:15:51.351Z,5.13
2017-06-03T16:18:19.047Z,4.90
2017-06-03T16:20:46.725Z,8.63
2017-06-03T16:23:14.908Z,6.10
2017-06-03T16:25:42.828Z,6.40
2017-06-03T16:28:11.085Z,10.30
2017-06-03T16:30:38.668Z,6.40
2017-06-03T16:33:06.222Z,5.90
2017-06-03T16:35:33.845Z,16.50
2017-06-03T16:38:01.420Z,5.80
2017-06-03T16:40:29.237Z,10.00
2017-06-03T16:42:56.859Z,9.17
2017-06-03T16:45:25.709Z,7.43
2017-06-03T16:47:53.267Z,5.80
2017-06-03T16:50:21.765Z,7.20
2017-06-03T16:52:52.235Z,7.03
2017-06-03T16:55:20.002Z,6.23
2017-06-03T16:57:47.821Z,7.03
2017-06-03T17:00:16.254Z,6.33
2017-06-03T17:02:43.803Z,8.70
2017-06-03T17:05:11.351Z,7.47
2017-06-03T17:07:38.974Z,8.17
2017-06-03T17:10:06.888Z,8.23
2017-06-03T17:12:34.431Z,8.20
2017-06-03T17:15:02.009Z,9.40
2017-06-03T17:17:29.666Z,9.20
2017-06-03T17:20:00.823Z,8.73
2017-06-03T17:22:30.782Z,13.33
2017-06-03T17:25:00.481Z,10.10
2017-06-03T17:27:31.398Z,8.63
2017-06-03T17:30:02.874Z,8.70
2017-06-03T17:32:37.336Z,9.10
2017-06-03T17:35:07.983Z,7.70
2017-06-03T17:37:39.666Z,8.63
2017-06-03T17:40:09.439Z,15.37
2017-06-03T17:42:39.427Z,8.77
2017-06-03T17:45:09.359Z,9.40
2017-06-03T17:47:39.735Z,9.40
2017-06-03T17:50:09.549Z,11.60
2017-06-03T17:52:46.289Z,7.87
2017-06-03T17:55:16.134Z,9.17
2017-06-03T17:57:46.605Z,8.90
2017-06-03T18:00:17.778Z,9.80
2017-06-03T18:02:49.026Z,10.20
2017-06-03T18:05:19.184Z,8.07
2017-06-03T18:07:48.717Z,14.37
2017-06-03T18:10:18.213Z,10.30
2017-06-03T18:12:45.915Z,11.97
2017-06-03T18:15:13.463Z,12.80
2017-06-03T18:17:40.997Z,9.40
2017-06-03T18:20:08.562Z,8.40
2017-06-03T18:22:36.516Z,10.97
2017-06-03T18:25:19.001Z,11.63
2017-06-03T18:27:46.535Z,11.73
2017-06-03T18:30:14.927Z,10.70
2017-06-03T18:32:42.523Z,10.83
2017-06-03T18:35:10.065Z,11.60
2017-06-03T18:37:37.704Z,12.10
2017-06-03T18:40:05.240Z,11.27
2017-06-03T18:42:32.809Z,10.77
2017-06-03T18:45:00.416Z,10.53
2017-06-03T18:47:27.963Z,10.73
2017-06-03T18:49:55.515Z,12.13
2017-06-03T18:52:23.099Z,11.70
2017-06-03T18:54:50.701Z,14.60
2017-06-03T18:57:18.241Z,18.20
2017-06-03T18:59:45.845Z,12.20
2017-06-03T19:02:13.430Z,12.23
2017-06-03T19:04:40.969Z,13.57
2017-06-03T19:07:08.509Z,13.73
2017-06-03T19:09:36.085Z,12.13
2017-06-03T19:12:03.650Z,12.47
2017-06-03T19:14:31.187Z,10.90
2017-06-03T19:16:58.765Z,11.47
2017-06-03T19:19:26.297Z,13.43
2017-06-03T19:21:53.852Z,11.50
2017-06-03T19:24:21.446Z,11.00
2017-06-03T19:26:48.995Z,11.03
2017-06-03T19:29:16.531Z,10.10
2017-06-03T19:31:44.171Z,12.23
2017-06-03T19:34:11.735Z,10.87
2017-06-03T19:36:39.275Z,11.57
2017-06-03T19:39:06.862Z,13.30
2017-06-03T19:41:34.757Z,11.80
2017-06-03T19:44:02.297Z,13.73
2017-06-03T19:46:29.938Z,18.90
2017-06-03T19:48:57.483Z,13.03
2017-06-03T19:51:25.026Z,12.53
2017-06-03T19:53:52.646Z,11.33
2017-06-03T19:56:20.211Z,13.30
2017-06-03T19:58:47.894Z,13.23
2017-06-03T20:01:15.513Z,14.43
2017-06-03T20:03:43.067Z,14.27
2017-06-03T20:06:10.656Z,13.80
2017-06-03T20:08:38.229Z,15.43
2017-06-03T20:11:06.081Z,13.57
2017-06-03T20:13:33.652Z,17.23
2017-06-03T20:16:01.251Z,16.70
2017-06-03T20:18:28.797Z,13.37
2017-06-03T20:20:56.402Z,15.17
2017-06-03T20:23:23.989Z,12.37
2017-06-03T20:25:51.535Z,13.53
2017-06-03T20:28:20.498Z,16.60
2017-06-03T20:30:48.105Z,14.83
2017-06-03T20:33:15.661Z,16.07
2017-06-03T20:35:43.210Z,13.90
2017-06-03T20:38:10.796Z,18.20
2017-06-03T20:40:38.342Z,18.93
2017-06-03T20:43:05.885Z,15.93
2017-06-03T20:45:34.127Z,18.97
2017-06-03T20:48:01.930Z,19.60
2017-06-03T20:50:30.869Z,17.50
2017-06-03T20:52:58.797Z,15.57
2017-06-03T20:55:26.576Z,18.87
2017-06-03T20:57:55.820Z,16.30
2017-06-03T21:00:23.806Z,17.10
2017-06-03T21:02:51.878Z,15.73
2017-06-03T21:05:19.971Z,16.90
2017-06-03T21:07:48.156Z,17.60
2017-06-03T21:10:15.795Z,15.37
2017-06-03T21:12:43.340Z,14.83
2017-06-03T21:15:10.946Z,16.20
2017-06-03T21:17:38.514Z,15.50
2017-06-03T21:20:06.055Z,12.70
2017-06-03T21:22:33.650Z,16.20
2017-06-03T21:25:01.189Z,13.60
2017-06-03T21:27:28.733Z,14.40
2017-06-03T21:29:56.327Z,15.23
2017-06-03T21:32:23.934Z,15.63
2017-06-03T21:34:51.474Z,13.73
2017-06-03T21:37:19.018Z,17.13
2017-06-03T21:39:46.622Z,14.50
2017-06-03T21:42:14.158Z,14.47
2017-06-03T21:44:41.704Z,14.87
2017-06-03T21:47:09.277Z,15.23
2017-06-03T21:49:36.813Z,16.00
2017-06-03T21:52:04.355Z,17.00
2017-06-03T21:54:31.954Z,19.10
2017-06-03T21:56:59.523Z,15.77
2017-06-03T21:59:27.060Z,15.37
2017-06-03T22:01:54.633Z,17.20
2017-06-03T22:04:22.182Z,16.30
2017-06-03T22:06:49.742Z,17.53
2017-06-03T22:09:17.403Z,14.37
2017-06-03T22:11:44.941Z,15.30
2017-06-03T22:14:12.478Z,15.57
2017-06-03T22:16:40.053Z,17.53
2017-06-03T22:19:07.598Z,15.40
2017-06-03T22:21:35.141Z,15.43
2017-06-03T22:24:02.725Z,14.63
2017-06-03T22:26:30.293Z,18.20
2017-06-03T22:28:57.902Z,15.20
2017-06-03T22:31:25.489Z,17.13
2017-06-03T22:33:53.045Z,20.60
2017-06-03T22:36:20.597Z,18.73
2017-06-03T22:38:48.173Z,15.37
2017-06-03T22:41:15.716Z,15.03
2017-06-03T22:43:43.294Z,15.17
2017-06-03T22:46:10.869Z,15.90
2017-06-03T22:48:38.429Z,16.17
2017-06-03T22:51:05.978Z,15.73
2017-06-03T22:53:33.569Z,18.47
2017-06-03T22:56:01.447Z,16.17
2017-06-03T22:58:28.986Z,17.40
2017-06-03T23:00:56.566Z,15.30
2017-06-03T23:03:24.109Z,15.70
2017-06-03T23:05:51.654Z,15.33
2017-06-03T23:08:19.234Z,18.40
2017-06-03T23:10:46.779Z,15.40
2017-06-03T23:13:14.325Z,14.00
2017-06-03T23:15:41.897Z,15.90
2017-06-03T23:18:09.428Z,17.50
2017-06-03T23:20:36.971Z,14.30
2017-06-03T23:23:04.545Z,14.83
2017-06-03T23:25:32.150Z,16.40
2017-06-03T23:27:59.992Z,16.80
2017-06-03T23:30:28.548Z,15.20
2017-06-03T23:32:57.001Z,15.50
2017-06-03T23:35:26.168Z,17.23
2017-06-03T23:37:55.806Z,17.77
2017-06-03T23:40:25.206Z,14.53
2017-06-03T23:42:53.816Z,14.57
2017-06-03T23:45:21.438Z,17.00
2017-06-03T23:47:48.977Z,14.43
2017-06-03T23:50:16.520Z,13.43
2017-06-03T23:52:44.117Z,14.10
2017-06-03T23:55:11.668Z,15.40
2017-06-03T23:57:39.207Z,16.63
